Time;durP1;ratioP1;P1;durP2;ratioP2;P2;SDS_P1;SDS_P2;PMS_P1;PMS_P2;Temp;Humidity;BMP_temperature;BMP_pressure;BME280_temperature;BME280_humidity;BME280_pressure;Samples;Min_cycle;Max_cycle;Signal;HPM_P1;HPM_P2
2023/08/14 00:00:37;;;;;;;;;;;19.50;99.90;;;;;;5115120;28;19908;-71
2023/08/14 00:03:03;;;;;;;;;;;19.50;99.90;;;;;;5115003;28;19903;-71
2023/08/14 00:05:28;;;;;;;;;;;19.50;99.90;;;;;;5115634;28;19911;-72
2023/08/14 00:07:54;;;;;;;;;;;19.50;99.90;;;;;;5114572;28;19904;-70
2023/08/14 00:10:19;;;;;;;;;;;19.50;99.90;;;;;;5115223;28;19911;-71
2023/08/14 00:12:45;;;;;;;;;;;19.50;99.90;;;;;;5114361;28;20338;-71
2023/08/14 00:15:10;;;;;;;;;;;19.50;99.90;;;;;;5115560;28;19904;-71
2023/08/14 00:17:36;;;;;;;;;;;19.50;99.90;;;;;;5115302;28;19998;-71
2023/08/14 00:20:02;;;;;;;;;;;19.50;99.90;;;;;;5113492;28;19953;-70
2023/08/14 00:22:27;;;;;;;;;;;19.60;99.90;;;;;;5115096;28;20006;-71
2023/08/14 00:24:53;;;;;;;;;;;19.60;99.90;;;;;;5114059;28;19939;-71
2023/08/14 00:27:18;;;;;;;;;;;19.60;99.90;;;;;;5121831;27;19910;-70
2023/08/14 00:29:45;;;;;;;;;;;19.60;99.90;;;;;;5134727;27;19903;-70
2023/08/14 00:32:10;;;;;;;;;;;19.60;99.90;;;;;;5134799;27;19915;-71
2023/08/14 00:34:38;;;;;;;;;;;19.60;99.90;;;;;;5134873;27;20010;-71
2023/08/14 00:37:03;;;;;;;;;;;19.60;99.90;;;;;;5134763;27;20327;-70
2023/08/14 00:39:29;;;;;;;;;;;19.50;99.90;;;;;;5135295;27;19914;-71
2023/08/14 00:41:54;;;;;;;;;;;19.60;99.90;;;;;;5134300;27;19970;-70
2023/08/14 00:44:20;;;;;;;;;;;19.60;99.90;;;;;;5134951;27;19903;-71
2023/08/14 00:46:45;;;;;;;;;;;19.60;99.90;;;;;;5133463;27;19930;-71
2023/08/14 00:49:11;;;;;;;;;;;19.70;99.90;;;;;;5134996;27;19903;-70
2023/08/14 00:51:37;;;;;;;;;;;19.70;99.90;;;;;;5134913;27;19904;-72
2023/08/14 00:54:02;;;;;;;;;;;19.70;99.90;;;;;;5115703;27;20139;-71
2023/08/14 00:56:29;;;;;;;;;;;19.80;99.90;;;;;;5135219;27;20350;-70
2023/08/14 00:58:55;;;;;;;;;;;19.80;99.90;;;;;;5133882;27;19926;-71
2023/08/14 01:01:20;;;;;;;;;;;19.90;99.90;;;;;;5134693;27;19903;-72
2023/08/14 01:03:46;;;;;;;;;;;19.90;99.90;;;;;;5134043;27;19915;-71
2023/08/14 01:06:12;;;;;;;;;;;19.90;99.90;;;;;;5134920;27;19903;-71
2023/08/14 01:08:37;;;;;;;;;;;19.90;99.90;;;;;;5134706;27;19998;-70
2023/08/14 01:11:08;;;;;;;;;;;19.90;99.90;;;;;;5134184;27;19925;-70
2023/08/14 01:13:41;;;;;;;;;;;19.90;99.90;;;;;;5134608;27;19904;-71
2023/08/14 01:16:09;;;;;;;;;;;20.00;99.90;;;;;;5133965;27;19952;-70
2023/08/14 01:18:37;;;;;;;;;;;20.00;99.90;;;;;;5134059;27;20283;-70
2023/08/14 01:21:19;;;;;;;;;;;20.00;99.90;;;;;;5133546;27;19907;-71
2023/08/14 01:23:45;;;;;;;;;;;20.00;99.90;;;;;;5133904;27;19903;-69
2023/08/14 01:26:10;;;;;;;;;;;20.00;99.90;;;;;;5134615;27;19994;-71
2023/08/14 01:28:36;;;;;;;;;;;20.00;99.90;;;;;;5115966;27;19911;-71
2023/08/14 01:31:01;;;;;;;;;;;20.00;99.90;;;;;;5112730;28;20076;-70
2023/08/14 01:33:27;;;;;;;;;;;20.00;99.90;;;;;;5112620;28;19923;-71
2023/08/14 01:36:25;;;;;;;;;;;20.00;99.90;;;;;;5112725;28;19978;-70
2023/08/14 01:38:59;;;;;;;;;;;20.10;99.90;;;;;;5067216;28;19912;-70
2023/08/14 01:41:48;;;;;;;;;;;20.20;99.90;;;;;;5113731;28;19907;-70
2023/08/14 01:44:14;;;;;;;;;;;20.20;99.90;;;;;;5102231;28;19911;-70
2023/08/14 01:46:42;;;;;;;;;;;20.40;99.90;;;;;;5113248;28;19929;-71
2023/08/14 01:49:10;;;;;;;;;;;20.50;99.90;;;;;;5112695;28;19904;-70
2023/08/14 01:51:35;;;;;;;;;;;20.60;99.90;;;;;;5113367;28;19903;-70
2023/08/14 01:54:01;;;;;;;;;;;20.60;99.90;;;;;;5112579;28;20109;-70
2023/08/14 01:56:26;;;;;;;;;;;20.50;99.90;;;;;;5113398;28;19912;-70
2023/08/14 01:58:52;;;;;;;;;;;20.60;99.90;;;;;;5112329;28;20014;-71
2023/08/14 02:01:17;;;;;;;;;;;20.50;99.90;;;;;;5113264;28;19903;-70
2023/08/14 02:03:43;;;;;;;;;;;20.50;99.90;;;;;;5094908;28;19908;-71
2023/08/14 02:06:08;;;;;;;;;;;20.40;99.90;;;;;;5112464;28;19903;-70
2023/08/14 02:08:34;;;;;;;;;;;20.30;99.90;;;;;;5113127;28;20002;-70
2023/08/14 02:11:05;;;;;;;;;;;20.20;99.90;;;;;;5112331;28;19958;-70
2023/08/14 02:13:30;;;;;;;;;;;20.10;99.90;;;;;;5112924;28;19903;-71
2023/08/14 02:15:56;;;;;;;;;;;20.00;99.90;;;;;;5112345;28;19914;-71
2023/08/14 02:18:21;;;;;;;;;;;19.90;99.90;;;;;;5112998;28;20348;-71
2023/08/14 02:20:48;;;;;;;;;;;19.90;99.90;;;;;;5112262;28;20004;-70
2023/08/14 02:23:13;;;;;;;;;;;19.80;99.90;;;;;;5112902;28;19911;-71
2023/08/14 02:25:39;;;;;;;;;;;19.70;99.90;;;;;;5112732;28;19960;-71
2023/08/14 02:28:05;;;;;;;;;;;19.70;99.90;;;;;;5125275;28;19903;-70
2023/08/14 02:30:30;;;;;;;;;;;19.70;99.90;;;;;;5133350;28;19998;-71
2023/08/14 02:32:56;;;;;;;;;;;19.60;99.90;;;;;;5131342;28;19923;-70
2023/08/14 02:35:22;;;;;;;;;;;19.70;99.90;;;;;;5133223;28;19911;-71
2023/08/14 02:37:47;;;;;;;;;;;19.60;99.90;;;;;;5132769;28;19911;-70
2023/08/14 02:40:13;;;;;;;;;;;19.60;99.90;;;;;;5132922;28;20356;-70
2023/08/14 02:42:38;;;;;;;;;;;19.60;99.90;;;;;;5133124;28;19910;-71
2023/08/14 02:45:04;;;;;;;;;;;19.60;99.90;;;;;;5132020;28;19907;-71
2023/08/14 02:47:30;;;;;;;;;;;19.50;99.90;;;;;;5133208;28;19910;-71
2023/08/14 02:49:55;;;;;;;;;;;19.60;99.90;;;;;;5132402;28;19907;-71
2023/08/14 02:52:21;;;;;;;;;;;19.50;99.90;;;;;;5133257;28;20217;-70
2023/08/14 02:54:46;;;;;;;;;;;19.50;99.90;;;;;;5114586;28;19903;-71
2023/08/14 02:57:12;;;;;;;;;;;19.40;99.90;;;;;;5133745;28;19904;-72
2023/08/14 02:59:37;;;;;;;;;;;19.40;99.90;;;;;;5134896;28;19994;-71
2023/08/14 03:02:03;;;;;;;;;;;19.30;99.90;;;;;;5138437;28;19946;-71
2023/08/14 03:04:29;;;;;;;;;;;19.30;99.90;;;;;;5121196;28;19904;-71
2023/08/14 03:06:55;;;;;;;;;;;19.20;99.90;;;;;;5137616;28;19904;-71
2023/08/14 03:09:20;;;;;;;;;;;19.20;99.90;;;;;;5138045;27;19951;-72
2023/08/14 03:11:46;;;;;;;;;;;19.20;99.90;;;;;;5139681;27;19907;-72
2023/08/14 03:14:11;;;;;;;;;;;19.10;99.90;;;;;;5136317;27;19998;-71
2023/08/14 03:16:37;;;;;;;;;;;19.10;99.90;;;;;;5139027;27;19968;-71
2023/08/14 03:19:02;;;;;;;;;;;19.00;99.90;;;;;;5139673;27;19918;-71
2023/08/14 03:21:28;;;;;;;;;;;19.00;99.90;;;;;;5141229;27;20401;-72
2023/08/14 03:23:54;;;;;;;;;;;;;;;;;;5137512;27;19904;-71
2023/08/14 03:26:20;;;;;;;;;;;;;;;;;;5137030;27;20355;-71
2023/08/14 03:28:45;;;;;;;;;;;;;;;;;;5117415;27;19904;-71
2023/08/14 03:31:11;;;;;;;;;;;;;;;;;;5115182;28;19899;-71
2023/08/14 03:33:37;;;;;;;;;;;;;;;;;;5115143;28;19916;-71
2023/08/14 03:36:03;;;;;;;;;;;;;;;;;;5115121;28;20279;-71
2023/08/14 03:38:30;;;;;;;;;;;;;;;;;;5115818;28;20368;-71
2023/08/14 03:40:59;;;;;;;;;;;;;;;;;;5114912;28;19960;-71
2023/08/14 03:43:26;;;;;;;;;;;;;;;;;;5115671;28;20280;-71
2023/08/14 03:45:54;;;;;;;;;;;18.90;99.90;;;;;;5115353;28;19908;-70
2023/08/14 03:48:19;;;;;;;;;;;18.90;99.90;;;;;;5115393;28;20272;-71
2023/08/14 03:50:46;;;;;;;;;;;18.80;99.90;;;;;;5115731;28;20007;-71
2023/08/14 03:53:11;;;;;;;;;;;18.70;99.90;;;;;;5115079;28;19900;-71
2023/08/14 03:55:37;;;;;;;;;;;18.60;99.90;;;;;;5115588;28;19914;-71
2023/08/14 03:58:02;;;;;;;;;;;18.50;99.90;;;;;;5114659;28;19915;-71
2023/08/14 04:00:28;;;;;;;;;;;18.40;99.90;;;;;;5115518;28;19911;-71
2023/08/14 04:02:53;;;;;;;;;;;18.40;99.90;;;;;;5096694;28;20348;-70
2023/08/14 04:05:19;;;;;;;;;;;18.40;99.90;;;;;;5115188;28;19904;-71
2023/08/14 04:07:45;;;;;;;;;;;18.40;99.90;;;;;;5115320;28;19904;-71
2023/08/14 04:10:10;;;;;;;;;;;18.30;99.90;;;;;;5114568;28;19904;-71
2023/08/14 04:12:36;;;;;;;;;;;18.30;99.90;;;;;;5115283;28;19904;-71
2023/08/14 04:15:19;;;;;;;;;;;18.30;99.90;;;;;;5096236;28;20361;-71
2023/08/14 04:17:45;;;;;;;;;;;18.20;99.90;;;;;;5115159;28;19962;-71
2023/08/14 04:20:11;;;;;;;;;;;18.10;99.90;;;;;;5114451;28;19956;-71
2023/08/14 04:22:36;;;;;;;;;;;18.10;99.90;;;;;;5114030;28;19915;-71
2023/08/14 04:25:02;;;;;;;;;;;18.00;99.90;;;;;;5114215;28;19964;-71
2023/08/14 04:27:27;;;;;;;;;;;18.00;99.90;;;;;;5104888;27;19994;-71
2023/08/14 04:29:53;;;;;;;;;;;18.10;99.90;;;;;;5135015;27;19910;-71
2023/08/14 04:32:19;;;;;;;;;;;18.00;99.90;;;;;;5134217;27;19961;-71
2023/08/14 04:34:44;;;;;;;;;;;18.10;99.90;;;;;;5116814;27;19903;-71
2023/08/14 04:37:09;;;;;;;;;;;18.10;99.90;;;;;;5134562;27;19903;-71
2023/08/14 04:39:35;;;;;;;;;;;18.00;99.90;;;;;;5135028;27;20367;-71
2023/08/14 04:42:00;;;;;;;;;;;18.10;99.90;;;;;;5134068;27;19946;-71
2023/08/14 04:44:26;;;;;;;;;;;18.00;99.90;;;;;;5135493;27;19907;-71
2023/08/14 04:46:51;;;;;;;;;;;18.00;99.90;;;;;;5134882;27;19946;-71
2023/08/14 04:49:17;;;;;;;;;;;18.00;99.90;;;;;;5134273;27;19903;-71
2023/08/14 04:51:42;;;;;;;;;;;18.10;99.90;;;;;;5134974;27;20408;-71
2023/08/14 04:54:08;;;;;;;;;;;18.10;99.90;;;;;;5133999;27;19911;-71
2023/08/14 04:56:33;;;;;;;;;;;18.10;99.90;;;;;;5134637;27;20271;-71
2023/08/14 04:58:59;;;;;;;;;;;18.10;99.90;;;;;;5133932;27;20347;-70
2023/08/14 05:01:24;;;;;;;;;;;18.10;99.90;;;;;;5134526;27;19907;-71
2023/08/14 05:03:50;;;;;;;;;;;18.10;99.90;;;;;;5134360;27;20348;-71
2023/08/14 05:06:15;;;;;;;;;;;18.20;99.90;;;;;;5133718;27;19899;-71
2023/08/14 05:08:41;;;;;;;;;;;18.20;99.90;;;;;;5134651;27;19904;-72
2023/08/14 05:11:06;;;;;;;;;;;18.20;99.90;;;;;;5133907;27;19907;-71
2023/08/14 05:13:32;;;;;;;;;;;18.20;99.90;;;;;;5134738;27;19990;-72
2023/08/14 05:15:57;;;;;;;;;;;18.20;99.90;;;;;;5134136;27;19904;-70
2023/08/14 05:18:23;;;;;;;;;;;18.20;99.90;;;;;;5134207;27;20304;-71
2023/08/14 05:20:49;;;;;;;;;;;18.30;99.90;;;;;;5134839;27;20355;-71
2023/08/14 05:23:15;;;;;;;;;;;18.30;99.90;;;;;;5133528;27;19914;-70
2023/08/14 05:25:41;;;;;;;;;;;18.40;99.90;;;;;;5134515;27;19903;-71
2023/08/14 05:28:06;;;;;;;;;;;18.50;99.90;;;;;;5119830;27;19915;-70
2023/08/14 05:30:32;;;;;;;;;;;18.70;99.90;;;;;;5113979;28;19904;-71
2023/08/14 05:32:57;;;;;;;;;;;18.80;99.90;;;;;;5112126;28;19915;-70
2023/08/14 05:35:24;;;;;;;;;;;18.90;99.90;;;;;;5113517;28;19915;-71
2023/08/14 05:37:52;;;;;;;;;;;19.10;99.90;;;;;;5113124;28;20351;-72
2023/08/14 05:40:20;;;;;;;;;;;19.10;99.90;;;;;;5112792;28;19914;-71
2023/08/14 05:43:05;;;;;;;;;;;19.30;99.90;;;;;;5113704;28;20260;-71
2023/08/14 05:45:34;;;;;;;;;;;19.40;99.90;;;;;;5113546;28;19910;-71
2023/08/14 05:48:00;;;;;;;;;;;19.50;99.90;;;;;;5112819;28;20347;-70
2023/08/14 05:50:27;;;;;;;;;;;19.50;99.90;;;;;;5113041;28;19935;-71
2023/08/14 05:52:55;;;;;;;;;;;19.60;99.90;;;;;;5113418;28;19904;-71
2023/08/14 05:55:20;;;;;;;;;;;19.70;99.90;;;;;;5112586;28;19927;-71
2023/08/14 05:57:46;;;;;;;;;;;19.70;99.90;;;;;;5113777;28;19965;-71
2023/08/14 06:00:12;;;;;;;;;;;19.70;99.90;;;;;;5112638;28;19903;-71
2023/08/14 06:02:37;;;;;;;;;;;19.80;99.90;;;;;;5113519;28;19980;-71
2023/08/14 06:05:03;;;;;;;;;;;19.80;99.90;;;;;;5112505;28;19919;-70
2023/08/14 06:07:28;;;;;;;;;;;19.80;99.90;;;;;;5113285;28;20241;-72
2023/08/14 06:09:54;;;;;;;;;;;19.90;99.90;;;;;;5113270;28;19949;-72
2023/08/14 06:12:19;;;;;;;;;;;19.90;99.90;;;;;;5112529;28;19900;-70
2023/08/14 06:14:45;;;;;;;;;;;20.00;99.90;;;;;;5113278;28;20272;-71
2023/08/14 06:17:10;;;;;;;;;;;20.10;99.90;;;;;;5112332;28;20033;-71
2023/08/14 06:19:36;;;;;;;;;;;20.10;99.90;;;;;;5112098;28;20380;-72
2023/08/14 06:22:01;;;;;;;;;;;20.20;99.90;;;;;;5112414;28;20264;-70
2023/08/14 06:24:29;;;;;;;;;;;20.30;99.90;;;;;;5112832;28;19914;-72
2023/08/14 06:26:57;;;;;;;;;;;20.30;99.90;;;;;;5116627;28;19946;-72
2023/08/14 06:29:23;;;;;;;;;;;20.30;99.90;;;;;;5132709;28;19899;-71
2023/08/14 06:31:48;;;;;;;;;;;20.30;99.90;;;;;;5133521;28;19926;-72
2023/08/14 06:34:14;;;;;;;;;;;20.30;99.90;;;;;;5131912;28;20284;-71
2023/08/14 06:36:39;;;;;;;;;;;20.30;99.90;;;;;;5133604;28;20386;-71
2023/08/14 06:39:05;;;;;;;;;;;20.30;99.90;;;;;;5132622;28;19912;-70
2023/08/14 06:41:30;;;;;;;;;;;20.40;99.90;;;;;;5133473;28;19903;-71
2023/08/14 06:43:56;;;;;;;;;;;20.40;99.90;;;;;;5133444;27;19914;-72
2023/08/14 06:46:21;;;;;;;;;;;20.30;99.90;;;;;;5136739;27;19926;-72
2023/08/14 06:48:47;;;;;;;;;;;20.40;99.90;;;;;;5137791;27;20248;-72
2023/08/14 06:51:12;;;;;;;;;;;20.50;99.90;;;;;;5136653;27;19904;-72
2023/08/14 06:53:38;;;;;;;;;;;20.70;99.90;;;;;;5137419;27;19911;-72
2023/08/14 06:56:03;;;;;;;;;;;20.80;99.90;;;;;;5137353;27;19951;-70
2023/08/14 06:58:29;;;;;;;;;;;20.90;99.90;;;;;;5136859;27;20225;-71
2023/08/14 07:00:55;;;;;;;;;;;21.00;99.90;;;;;;5137568;27;19903;-71
2023/08/14 07:03:20;;;;;;;;;;;21.10;99.90;;;;;;5136675;27;20371;-71
2023/08/14 07:05:46;;;;;;;;;;;21.20;99.90;;;;;;5136916;27;19996;-71
2023/08/14 07:08:11;;;;;;;;;;;21.30;99.90;;;;;;5136383;27;19986;-71
2023/08/14 07:10:37;;;;;;;;;;;21.40;99.90;;;;;;5136854;27;19907;-71
2023/08/14 07:13:02;;;;;;;;;;;21.50;99.90;;;;;;5136688;27;20325;-71
2023/08/14 07:15:28;;;;;;;;;;;21.70;99.90;;;;;;5136186;27;20352;-71
2023/08/14 07:17:53;;;;;;;;;;;21.70;99.90;;;;;;5136916;27;20356;-73
2023/08/14 07:20:19;;;;;;;;;;;21.70;99.90;;;;;;5136092;27;19903;-72
2023/08/14 07:22:45;;;;;;;;;;;21.90;99.90;;;;;;5136859;27;19903;-72
2023/08/14 07:25:12;;;;;;;;;;;22.00;99.90;;;;;;5135943;27;19903;-72
2023/08/14 07:27:37;;;;;;;;;;;22.20;99.90;;;;;;5127513;27;20005;-71
2023/08/14 07:30:05;;;;;;;;;;;22.30;99.90;;;;;;5116539;28;20379;-72
2023/08/14 07:32:30;;;;;;;;;;;22.40;99.90;;;;;;5115440;28;19967;-72
2023/08/14 07:34:56;;;;;;;;;;;22.50;99.90;;;;;;5116556;28;19939;-72
2023/08/14 07:37:22;;;;;;;;;;;22.50;99.90;;;;;;5115163;28;19948;-71
2023/08/14 07:39:47;;;;;;;;;;;22.60;99.90;;;;;;5116069;28;20032;-72
2023/08/14 07:42:13;;;;;;;;;;;22.70;99.90;;;;;;5115034;28;19903;-71
2023/08/14 07:44:38;;;;;;;;;;;22.90;99.90;;;;;;5115964;28;19984;-72
2023/08/14 07:47:04;;;;;;;;;;;23.00;99.90;;;;;;5115799;28;20312;-72
2023/08/14 07:49:31;;;;;;;;;;;23.20;99.90;;;;;;5115040;28;20275;-71
2023/08/14 07:51:57;;;;;;;;;;;23.30;99.90;;;;;;5115395;28;19908;-73
2023/08/14 07:54:22;;;;;;;;;;;23.40;99.90;;;;;;5114944;28;20419;-72
2023/08/14 07:56:48;;;;;;;;;;;23.50;99.90;;;;;;5115635;28;19904;-72
2023/08/14 07:59:13;;;;;;;;;;;23.70;99.90;;;;;;5114783;28;19918;-72
2023/08/14 08:01:40;;;;;;;;;;;23.70;99.90;;;;;;5115701;28;19910;-71
2023/08/14 08:04:06;;;;;;;;;;;23.90;99.90;;;;;;5115145;28;19957;-71
2023/08/14 08:06:31;;;;;;;;;;;23.90;99.90;;;;;;5114850;28;19908;-72
2023/08/14 08:08:57;;;;;;;;;;;24.00;99.90;;;;;;5114956;28;19908;-73
2023/08/14 08:11:22;;;;;;;;;;;24.20;99.90;;;;;;5114421;28;19911;-72
2023/08/14 08:13:48;;;;;;;;;;;24.30;99.90;;;;;;5115488;28;20003;-71
2023/08/14 08:16:13;;;;;;;;;;;24.40;99.90;;;;;;5114701;28;19910;-72
2023/08/14 08:18:39;;;;;;;;;;;24.50;99.90;;;;;;5115114;28;19930;-72
2023/08/14 08:21:04;;;;;;;;;;;24.60;99.90;;;;;;5115068;28;19946;-72
2023/08/14 08:23:30;;;;;;;;;;;24.70;99.90;;;;;;5114446;28;19903;-71
2023/08/14 08:25:55;;;;;;;;;;;24.80;99.90;;;;;;5114925;28;19910;-71
2023/08/14 08:28:21;;;;;;;;;;;24.80;99.90;;;;;;5129868;27;19903;-71
2023/08/14 08:30:46;;;;;;;;;;;25.00;99.90;;;;;;5135279;27;19943;-72
2023/08/14 08:33:12;;;;;;;;;;;25.30;99.90;;;;;;5133887;27;19915;-71
2023/08/14 08:35:37;;;;;;;;;;;25.30;99.90;;;;;;5135664;27;19903;-72
2023/08/14 08:38:03;;;;;;;;;;;25.40;99.90;;;;;;5135569;27;19911;-71
2023/08/14 08:40:29;;;;;;;;;;;25.40;99.90;;;;;;5137250;27;19955;-71
2023/08/14 08:42:55;;;;;;;;;;;25.50;99.90;;;;;;5137661;27;19914;-72
2023/08/14 08:45:22;;;;;;;;;;;25.70;99.90;;;;;;5135435;27;20237;-72
2023/08/14 08:47:48;;;;;;;;;;;26.60;99.90;;;;;;5136324;27;19903;-73
2023/08/14 08:50:13;;;;;;;;;;;25.90;99.90;;;;;;5134639;27;20244;-72
2023/08/14 08:52:39;;;;;;;;;;;26.00;99.90;;;;;;5135957;27;19911;-72
2023/08/14 08:55:06;;;;;;;;;;;26.10;99.90;;;;;;5135921;27;19904;-73
2023/08/14 08:57:32;;;;;;;;;;;26.30;99.90;;;;;;5134281;27;19899;-72
2023/08/14 08:59:58;;;;;;;;;;;26.50;99.90;;;;;;5134732;27;20264;-72
2023/08/14 09:02:23;;;;;;;;;;;26.50;99.90;;;;;;5115836;27;19910;-72
2023/08/14 09:04:49;;;;;;;;;;;26.50;99.90;;;;;;5135162;27;20243;-73
2023/08/14 09:07:15;;;;;;;;;;;26.50;99.90;;;;;;5133546;27;19903;-72
2023/08/14 09:09:41;;;;;;;;;;;26.50;99.90;;;;;;5134687;27;20267;-72
2023/08/14 09:12:07;;;;;;;;;;;26.60;99.90;;;;;;5134754;27;19914;-72
2023/08/14 09:14:32;;;;;;;;;;;26.80;99.90;;;;;;5134111;27;19900;-72
2023/08/14 09:16:59;;;;;;;;;;;27.00;99.90;;;;;;5134816;27;20340;-72
2023/08/14 09:19:26;;;;;;;;;;;;;;;;;;5133779;27;19983;-72
2023/08/14 09:21:54;;;;;;;;;;;;;;;;;;5134486;27;19903;-72
2023/08/14 09:24:20;;;;;;;;;;;27.30;99.90;;;;;;5115201;27;20327;-71
2023/08/14 09:26:46;;;;;;;;;;;27.40;99.90;;;;;;5132118;27;19903;-72
2023/08/14 09:29:12;;;;;;;;;;;27.50;99.90;;;;;;5113541;28;19903;-70
2023/08/14 09:31:41;;;;;;;;;;;27.50;99.90;;;;;;5113834;28;19976;-72
2023/08/14 09:34:07;;;;;;;;;;;27.60;99.90;;;;;;5113085;28;19964;-71
2023/08/14 09:36:33;;;;;;;;;;;;;;;;;;5113094;28;19925;-71
2023/08/14 09:38:59;;;;;;;;;;;;;;;;;;5113798;28;19912;-71
2023/08/14 09:41:25;;;;;;;;;;;;;;;;;;5112798;28;20014;-72
2023/08/14 09:43:50;;;;;;;;;;;;;;;;;;5094990;28;19904;-71
2023/08/14 09:46:16;;;;;;;;;;;;;;;;;;5112976;28;19903;-71
2023/08/14 09:48:42;;;;;;;;;;;;;;;;;;5113518;28;19994;-72
2023/08/14 09:51:08;;;;;;;;;;;;;;;;;;5113542;28;19998;-71
2023/08/14 09:53:34;;;;;;;;;;;;;;;;;;5112637;28;20534;-72
2023/08/14 09:56:00;;;;;;;;;;;;;;;;;;5113136;28;19904;-72
2023/08/14 09:58:26;;;;;;;;;;;;;;;;;;5112383;28;19959;-71
2023/08/14 10:00:52;;;;;;;;;;;;;;;;;;5113581;28;19904;-71
2023/08/14 10:03:19;;;;;;;;;;;;;;;;;;5112487;28;19951;-72
2023/08/14 10:05:45;;;;;;;;;;;;;;;;;;5113559;28;20388;-71
2023/08/14 10:08:11;;;;;;;;;;;;;;;;;;5113413;28;19914;-72
2023/08/14 10:10:40;;;;;;;;;;;;;;;;;;5112478;28;19958;-71
2023/08/14 10:13:07;;;;;;;;;;;30.20;99.90;;;;;;5113247;28;19907;-71
2023/08/14 10:15:37;;;;;;;;;;;30.30;99.90;;;;;;5112188;28;19982;-71
2023/08/14 10:18:09;;;;;;;;;;;30.30;99.90;;;;;;5113166;28;19916;-71
2023/08/14 10:20:35;;;;;;;;;;;30.30;99.90;;;;;;5111954;28;19911;-72
2023/08/14 10:23:01;;;;;;;;;;;30.40;99.90;;;;;;5113174;28;19907;-72
2023/08/14 10:25:27;;;;;;;;;;;30.50;99.90;;;;;;5112013;28;19915;-71
2023/08/14 10:27:53;;;;;;;;;;;30.50;99.90;;;;;;5124937;28;20466;-72
2023/08/14 10:30:22;;;;;;;;;;;30.60;99.90;;;;;;5133306;28;19929;-73
2023/08/14 10:32:50;;;;;;;;;;;;;;;;;;5133139;28;20278;-71
2023/08/14 10:35:18;;;;;;;;;;;;;;;;;;5133295;28;19910;-71
2023/08/14 10:37:44;;;;;;;;;;;;;;;;;;5133555;28;20014;-71
2023/08/14 10:40:14;;;;;;;;;;;31.10;99.90;;;;;;5133030;28;19944;-72
2023/08/14 10:42:59;;;;;;;;;;;31.50;99.90;;;;;;5132620;28;19907;-72
2023/08/14 10:45:26;;;;;;;;;;;31.80;99.90;;;;;;5113727;28;19922;-72
2023/08/14 10:47:52;;;;;;;;;;;32.10;99.90;;;;;;5133513;28;19904;-72
2023/08/14 10:50:22;;;;;;;;;;;32.40;99.90;;;;;;5132891;28;19998;-71
2023/08/14 10:52:48;;;;;;;;;;;32.80;99.90;;;;;;5133290;28;19903;-72
2023/08/14 10:55:22;;;;;;;;;;;32.70;99.90;;;;;;5133062;28;19939;-73
2023/08/14 10:57:47;;;;;;;;;;;32.60;99.90;;;;;;5132982;28;20001;-72
2023/08/14 11:00:26;;;;;;;;;;;32.60;99.90;;;;;;5133193;28;19994;-73
2023/08/14 11:03:02;;;;;;;;;;;32.70;99.90;;;;;;5133076;28;19903;-72
2023/08/14 11:05:55;;;;;;;;;;;32.60;99.90;;;;;;5132408;28;20334;-72
2023/08/14 11:08:20;;;;;;;;;;;32.60;99.90;;;;;;5131738;28;19904;-72
2023/08/14 11:10:48;;;;;;;;;;;32.30;99.90;;;;;;5132918;28;20355;-71
2023/08/14 11:13:14;;;;;;;;;;;32.20;99.90;;;;;;5133036;28;19912;-71
2023/08/14 11:15:40;;;;;;;;;;;32.10;99.90;;;;;;5132380;28;20612;-71
2023/08/14 11:18:09;;;;;;;;;;;32.20;99.90;;;;;;5133236;28;20133;-72
2023/08/14 11:20:37;;;;;;;;;;;32.20;99.90;;;;;;5113663;28;20376;-71
2023/08/14 11:23:03;;;;;;;;;;;32.20;99.90;;;;;;5133026;28;19904;-72
2023/08/14 11:25:28;;;;;;;;;;;32.20;99.50;;;;;;5132427;28;19915;-72
2023/08/14 11:27:55;;;;;;;;;;;32.30;99.60;;;;;;5121298;28;19973;-71
2023/08/14 11:30:24;;;;;;;;;;;32.30;99.40;;;;;;5112364;28;19904;-72
2023/08/14 11:32:50;;;;;;;;;;;32.30;99.40;;;;;;5124274;28;19916;-73
2023/08/14 11:35:16;;;;;;;;;;;32.40;99.30;;;;;;5131481;28;19903;-71
2023/08/14 11:37:42;;;;;;;;;;;32.50;99.30;;;;;;5134316;28;19904;-70
2023/08/14 11:40:09;;;;;;;;;;;32.50;98.90;;;;;;5135200;28;19904;-72
2023/08/14 11:42:35;;;;;;;;;;;32.80;99.90;;;;;;5134964;28;19910;-72
2023/08/14 11:45:03;;;;;;;;;;;;;;;;;;5135605;28;19935;-71
2023/08/14 11:47:36;;;;;;;;;;;33.40;97.30;;;;;;5133898;28;19911;-70
2023/08/14 11:50:05;;;;;;;;;;;33.80;97.20;;;;;;5119392;28;19911;-71
2023/08/14 11:52:31;;;;;;;;;;;34.10;96.30;;;;;;5117065;28;19904;-71
2023/08/14 11:54:57;;;;;;;;;;;34.10;95.60;;;;;;5117088;28;20367;-71
2023/08/14 11:57:26;;;;;;;;;;;34.30;97.80;;;;;;5115850;28;19969;-71
2023/08/14 11:59:53;;;;;;;;;;;34.40;95.20;;;;;;5118502;28;19973;-71
2023/08/14 12:02:19;;;;;;;;;;;34.50;95.40;;;;;;5121122;28;19950;-72
2023/08/14 12:04:45;;;;;;;;;;;34.50;96.10;;;;;;5115427;28;20015;-71
2023/08/14 12:07:11;;;;;;;;;;;34.50;96.40;;;;;;5115961;28;20388;-71
2023/08/14 12:09:37;;;;;;;;;;;34.50;96.30;;;;;;5114791;28;19947;-70
2023/08/14 12:12:03;;;;;;;;;;;34.90;99.90;;;;;;5115637;28;19904;-71
2023/08/14 12:14:43;;;;;;;;;;;35.10;99.90;;;;;;5114619;28;19911;-72
2023/08/14 12:17:10;;;;;;;;;;;35.20;99.90;;;;;;5115591;28;19914;-71
2023/08/14 12:19:36;;;;;;;;;;;35.10;99.90;;;;;;5113874;28;19918;-71
2023/08/14 12:22:02;;;;;;;;;;;35.00;99.90;;;;;;5115701;28;19908;-73
2023/08/14 12:24:35;;;;;;;;;;;34.90;99.90;;;;;;5114560;28;19972;-71
2023/08/14 12:27:00;;;;;;;;;;;34.80;99.90;;;;;;5119892;27;19903;-71
2023/08/14 12:29:27;;;;;;;;;;;34.50;99.90;;;;;;5135212;27;19903;-71
2023/08/14 12:31:53;;;;;;;;;;;34.30;99.90;;;;;;5135347;27;20403;-72
2023/08/14 12:34:21;;;;;;;;;;;33.90;99.90;;;;;;5113356;28;19943;-71
2023/08/14 12:36:46;;;;;;;;;;;33.60;99.90;;;;;;5114556;28;19908;-71
2023/08/14 12:39:12;;;;;;;;;;;33.40;99.90;;;;;;5114826;28;19976;-72
2023/08/14 12:41:38;;;;;;;;;;;33.10;99.90;;;;;;5113788;28;19907;-71
2023/08/14 12:44:04;;;;;;;;;;;32.70;99.90;;;;;;5114182;28;19968;-71
2023/08/14 12:46:29;;;;;;;;;;;32.00;99.90;;;;;;5113935;28;19911;-72
2023/08/14 12:48:55;;;;;;;;;;;31.40;99.90;;;;;;5114760;28;19904;-71
2023/08/14 12:51:20;;;;;;;;;;;30.80;99.90;;;;;;5114818;28;19904;-72
2023/08/14 12:53:46;;;;;;;;;;;30.50;99.90;;;;;;5113615;28;20652;-71
2023/08/14 12:56:11;;;;;;;;;;;30.20;99.90;;;;;;5114564;28;19958;-71
2023/08/14 12:58:37;;;;;;;;;;;29.90;99.90;;;;;;5113436;28;20344;-71
2023/08/14 13:01:02;;;;;;;;;;;29.80;99.90;;;;;;5114399;28;19904;-71
2023/08/14 13:03:28;;;;;;;;;;;29.50;99.90;;;;;;5113732;28;19964;-70
2023/08/14 13:05:54;;;;;;;;;;;29.20;99.90;;;;;;5114612;28;19956;-72
2023/08/14 13:08:19;;;;;;;;;;;29.20;99.90;;;;;;5114302;28;19904;-72
2023/08/14 13:10:45;;;;;;;;;;;29.30;99.90;;;;;;5113482;28;19990;-71
2023/08/14 13:13:10;;;;;;;;;;;29.30;99.90;;;;;;5114206;28;19904;-72
2023/08/14 13:15:36;;;;;;;;;;;29.50;99.90;;;;;;5113076;28;19918;-73
2023/08/14 13:18:01;;;;;;;;;;;29.70;99.90;;;;;;5113798;28;19904;-73
2023/08/14 13:20:27;;;;;;;;;;;29.90;99.90;;;;;;5113766;28;19939;-71
2023/08/14 13:22:52;;;;;;;;;;;30.30;99.90;;;;;;5113876;28;19904;-71
2023/08/14 13:25:18;;;;;;;;;;;30.60;99.90;;;;;;5113943;28;19908;-72
2023/08/14 13:27:43;;;;;;;;;;;31.00;99.90;;;;;;5102484;28;19958;-71
2023/08/14 13:30:09;;;;;;;;;;;31.30;99.90;;;;;;5093367;28;19904;-72
2023/08/14 13:32:34;;;;;;;;;;;31.60;99.90;;;;;;5093828;28;19973;-71
2023/08/14 13:35:00;;;;;;;;;;;32.10;99.90;;;;;;5113995;28;19998;-71
2023/08/14 13:37:25;;;;;;;;;;;32.30;99.90;;;;;;5113547;28;19904;-71
2023/08/14 13:39:51;;;;;;;;;;;32.40;99.90;;;;;;5113036;28;19966;-71
2023/08/14 13:42:16;;;;;;;;;;;32.40;99.90;;;;;;5113601;28;19904;-71
2023/08/14 13:44:42;;;;;;;;;;;32.50;99.90;;;;;;5112765;28;19903;-71
2023/08/14 13:47:07;;;;;;;;;;;32.60;99.90;;;;;;5113516;28;20004;-72
2023/08/14 13:49:33;;;;;;;;;;;32.70;99.90;;;;;;5112682;28;19911;-71
2023/08/14 13:51:58;;;;;;;;;;;32.80;99.90;;;;;;5113248;28;19954;-71
2023/08/14 13:54:24;;;;;;;;;;;33.10;99.90;;;;;;5113127;28;20444;-72
2023/08/14 13:56:49;;;;;;;;;;;33.50;99.90;;;;;;5112347;28;19900;-71
2023/08/14 13:59:15;;;;;;;;;;;33.90;99.90;;;;;;5113101;28;19919;-71
2023/08/14 14:01:40;;;;;;;;;;;34.10;99.90;;;;;;5112364;28;19927;-72
2023/08/14 14:04:05;;;;;;;;;;;34.10;99.90;;;;;;5113371;28;19904;-70
2023/08/14 14:06:31;;;;;;;;;;;34.10;99.90;;;;;;5112620;28;20375;-71
2023/08/14 14:08:56;;;;;;;;;;;33.70;99.90;;;;;;5113076;28;19949;-72
2023/08/14 14:11:22;;;;;;;;;;;33.50;99.90;;;;;;5113697;28;19904;-71
2023/08/14 14:13:47;;;;;;;;;;;33.30;99.90;;;;;;5112553;28;20011;-71
2023/08/14 14:16:13;;;;;;;;;;;33.10;99.90;;;;;;5113366;28;20275;-71
2023/08/14 14:18:38;;;;;;;;;;;33.00;99.90;;;;;;5112440;28;20297;-71
2023/08/14 14:21:04;;;;;;;;;;;33.10;99.90;;;;;;5113183;28;19903;-70
2023/08/14 14:23:29;;;;;;;;;;;33.50;99.90;;;;;;5112689;28;20382;-70